Latest Weather Observations for Miles

IDQ60801

Issued at 3:02 pm EST Thursday 2 July 2015 (issued every 30 minutes, with the page automatically refreshed every 10 minutes)

About weather observations | Map of weather stations | Latest weather observations for QLD | Other Formats
Station Details ID: 042112 Name: MILES CONSTANCE STREET Lat: -26.66 Lon: 150.18 Height: 304.8 m
Data from the previous 72 hours. | See also: Recent months at Miles
Date/Time
EST
Temp
°C
App
Temp
°C
Dew
Point
Rel
Hum
%
Delta-T
°C
Wind Press
QNH
hPa
Press
MSL
hPa
Rain
since 9 am
mm
Dir
 
Spd
km/h
Gust
km/h
Spd
kts
Gust
kts
02/03:00pm 16.5 11.8 3.4 41 6.1 SW 17 28 9 15 1022.2 1022.3 0.0
02/02:30pm 15.8 11.1 3.2 43 5.8 SW 17 26 9 14 1022.5 - 0.0
02/02:00pm 16.1 12.0 4.3 45 5.6 WSW 15 24 8 13 1022.6 - 0.0
02/01:30pm 16.2 12.5 4.4 45 5.6 SW 13 20 7 11 1022.9 - 0.0
02/01:00pm 15.2 10.8 4.9 50 4.9 SW 17 24 9 13 1023.3 - 0.0
02/12:30pm 15.2 11.7 5.4 52 4.7 WSW 13 22 7 12 1023.7 - 0.0
02/12:00pm 14.0 10.5 5.4 56 4.1 WSW 13 22 7 12 1024.7 1024.8 0.0
02/11:30am 14.3 11.7 6.3 58 3.9 SSW 9 17 5 9 1025.0 - 0.0
02/11:00am 13.6 11.7 6.9 64 3.3 W 6 11 3 6 1025.2 - 0.0
02/10:30am 12.1 9.2 6.7 69 2.6 SW 11 17 6 9 1025.8 - 0.0
02/10:00am 11.4 8.2 6.8 73 2.2 SSW 13 22 7 12 1026.4 - 0.0
02/09:30am 10.7 8.3 7.2 79 1.7 SSW 9 19 5 10 1026.7 - 0.0
02/09:00am 9.9 8.1 8.1 88 0.9 SSW 7 13 4 7 1026.7 1026.8 0.0
02/08:30am 9.3 7.6 8.5 95 0.4 SSW 7 13 4 7 1026.3 - 0.0
02/08:00am 9.1 7.6 8.5 96 0.3 SSW 6 11 3 6 1026.3 - 0.0
02/07:30am 9.0 7.0 8.6 97 0.2 SSW 9 13 5 7 1025.5 - 0.0
02/07:00am 9.0 7.4 8.8 99 0.1 SSW 7 13 4 7 1025.2 - 0.0
02/06:30am 8.5 8.2 8.5 100 0.0 CALM 0 7 0 4 1025.0 - 0.0
02/06:00am 8.0 7.5 7.8 99 0.1 CALM 0 0 0 0 1024.7 1024.8 0.0
02/05:30am 7.4 6.8 7.4 100 0.0 CALM 0 0 0 0 1024.5 - 0.0
02/05:00am 7.1 6.4 6.9 99 0.1 CALM 0 0 0 0 1023.8 - 0.0
02/04:30am 6.8 6.0 6.6 99 0.1 CALM 0 0 0 0 1023.9 - 0.0
02/04:00am 6.2 5.3 6.0 99 0.1 CALM 0 0 0 0 1024.0 - 0.0
02/03:30am 5.7 4.7 5.5 99 0.1 CALM 0 0 0 0 1024.1 - 0.0
02/03:00am 5.0 3.8 4.8 99 0.1 CALM 0 0 0 0 1024.1 1024.2 0.0
02/02:30am 4.3 3.0 4.1 99 0.1 CALM 0 0 0 0 1024.4 - 0.0
02/02:00am 4.7 3.5 4.5 99 0.1 CALM 0 0 0 0 1024.9 - 0.0
02/01:30am 5.0 3.8 4.8 99 0.1 CALM 0 0 0 0 1024.9 - 0.0
02/01:00am 5.3 4.2 5.1 99 0.1 CALM 0 0 0 0 1025.1 - 0.0
02/12:30am 5.9 4.9 5.5 97 0.2 CALM 0 0 0 0 1025.4 - 0.0
02/12:00am 6.2 5.2 5.5 95 0.3 CALM 0 0 0 0 1025.6 1025.7 0.0
 
Date/Time
EST
Temp
°C
App
Temp
°C
Dew
Point
Rel
Hum
%
Delta-T
°C
Wind Press
QNH
hPa
Press
MSL
hPa
Rain
since 9 am
mm
Dir
 
Spd
km/h
Gust
km/h
Spd
kts
Gust
kts
01/11:30pm 6.7 5.9 6.3 97 0.2 CALM 0 0 0 0 1025.5 - 0.0
01/11:00pm 6.9 6.1 6.5 97 0.2 CALM 0 0 0 0 1025.7 - 0.0
01/10:30pm 7.6 7.0 7.2 97 0.2 CALM 0 0 0 0 1025.9 - 0.0
01/10:00pm 8.2 7.7 7.8 97 0.2 CALM 0 0 0 0 1025.6 - 0.0
01/09:30pm 8.9 8.5 8.1 95 0.4 CALM 0 0 0 0 1025.5 - 0.0
01/09:00pm 9.4 9.0 8.2 92 0.6 CALM 0 0 0 0 1025.7 1025.8 0.0
01/08:30pm 10.1 9.7 8.3 88 0.9 CALM 0 7 0 4 1025.5 - 0.0
01/08:00pm 10.6 10.3 8.6 87 1.0 CALM 0 0 0 0 1025.5 - 0.0
01/07:30pm 11.8 11.5 8.8 82 1.5 CALM 0 6 0 3 1025.5 - 0.0
01/07:00pm 12.5 11.1 9.0 79 1.8 SSW 6 9 3 5 1025.2 - 0.0
01/06:30pm 12.7 11.3 9.0 78 1.9 SW 6 7 3 4 1024.9 - 0.0
01/06:00pm 13.4 13.2 9.1 75 2.2 CALM 0 6 0 3 1024.7 1024.8 0.0
01/05:30pm 14.4 14.2 9.0 70 2.8 CALM 0 0 0 0 1024.4 - 0.0
01/05:00pm 15.5 13.5 8.7 64 3.5 SSW 9 15 5 8 1024.4 - 0.0
01/04:30pm 15.9 13.9 8.7 62 3.7 SSW 9 15 5 8 1024.4 - 0.0
01/04:00pm 16.4 13.3 8.7 60 4.0 SW 15 20 8 11 1024.5 - 0.0
01/03:30pm 17.2 14.5 9.0 58 4.3 SW 13 20 7 11 1024.5 - 0.0
01/03:00pm 17.5 14.4 8.9 57 4.5 SSW 15 24 8 13 1024.2 1024.3 0.0
01/02:30pm 18.8 16.3 9.6 55 4.9 S 13 22 7 12 1024.1 - 0.0
01/02:00pm 17.8 15.9 10.6 62 3.9 SSW 11 19 6 10 1024.5 - 0.0
01/01:30pm 17.1 14.0 10.4 64 3.6 SSW 17 26 9 14 1024.8 - 0.0
01/01:00pm 17.4 15.4 10.1 62 3.9 SSW 11 22 6 12 1024.9 - 0.0
01/12:30pm 17.3 14.9 10.2 63 3.8 SSW 13 20 7 11 1025.5 - 0.0
01/12:00pm 16.5 14.5 10.3 67 3.3 SSW 11 19 6 10 1026.0 1026.1 0.0
01/11:30am 16.1 13.8 10.3 68 3.1 SW 13 20 7 11 1026.4 - 0.0
01/11:00am 15.9 13.9 10.3 69 3.0 SW 11 17 6 9 1026.8 - 0.0
01/10:30am 15.3 12.9 10.2 71 2.7 SW 13 17 7 9 1027.2 - 0.0
01/10:00am 15.7 13.4 10.4 71 2.8 SSW 13 24 7 13 1027.2 - 0.0
01/09:30am 14.9 13.0 10.6 75 2.3 SSW 11 17 6 9 1027.3 - 0.0
01/09:00am 14.0 12.7 11.4 84 1.4 SW 9 17 5 9 1027.2 1027.4 0.0
01/08:30am 13.1 11.4 11.2 88 1.0 SW 11 17 6 9 1026.9 - 0.0
01/08:00am 12.4 11.4 11.1 92 0.7 SSW 7 15 4 8 1026.7 - 0.0
01/07:30am 11.4 11.2 10.6 95 0.4 SSW 2 9 1 5 1026.6 - 0.0
01/07:00am 10.7 10.8 10.1 96 0.3 CALM 0 0 0 0 1026.0 - 0.0
01/06:30am 10.9 11.0 10.3 96 0.3 CALM 0 0 0 0 1025.7 - 0.0
01/06:00am 11.0 11.2 10.4 96 0.3 CALM 0 0 0 0 1025.1 1025.2 0.0
01/05:30am 10.8 10.9 10.2 96 0.3 CALM 0 0 0 0 1024.5 - 0.0
01/05:00am 10.8 10.9 10.2 96 0.3 CALM 0 0 0 0 1024.1 - 0.0
01/04:30am 10.7 9.4 10.1 96 0.3 N 7 9 4 5 1024.2 - 0.0
01/04:00am 10.3 9.9 9.9 97 0.2 S 2 7 1 4 1024.5 - 0.0
01/03:30am 10.2 10.3 10.0 99 0.1 CALM 0 0 0 0 1024.6 - 0.0
01/03:00am 10.2 10.2 9.8 97 0.2 CALM 0 0 0 0 1024.8 1024.9 0.0
01/02:30am 10.6 10.7 10.0 96 0.3 CALM 0 0 0 0 1025.1 - 0.0
01/02:00am 10.7 10.8 10.3 97 0.2 CALM 0 0 0 0 1025.6 - 0.0
01/01:30am 10.8 10.9 10.2 96 0.3 CALM 0 0 0 0 1025.8 - 0.0
01/01:00am 11.6 11.8 10.6 94 0.5 CALM 0 0 0 0 1026.1 - 0.0
01/12:30am 12.5 12.0 10.8 89 0.9 S 4 9 2 5 1026.3 - 0.0
01/12:00am 13.1 12.2 10.8 86 1.2 S 6 11 3 6 1026.5 1026.6 0.0
 
Date/Time
EST
Temp
°C
App
Temp
°C
Dew
Point
Rel
Hum
%
Delta-T
°C
Wind Press
QNH
hPa
Press
MSL
hPa
Rain
since 9 am
mm
Dir
 
Spd
km/h
Gust
km/h
Spd
kts
Gust
kts
30/11:30pm 13.7 12.0 11.1 84 1.4 S 11 20 6 11 1026.8 - 0.0
30/11:00pm 14.3 13.0 11.1 81 1.7 SSW 9 17 5 9 1027.0 - 0.0
30/10:30pm 14.8 13.0 10.9 77 2.1 SSW 11 19 6 10 1026.9 - 0.0
30/10:00pm 12.4 12.8 11.3 93 0.6 CALM 0 0 0 0 1026.6 - 0.0
30/09:30pm 12.1 12.5 11.2 94 0.5 CALM 0 0 0 0 1026.5 - 0.0
30/09:00pm 12.3 12.7 11.2 93 0.6 CALM 0 0 0 0 1026.5 1026.5 0.0
30/08:30pm 12.8 13.3 11.5 92 0.7 CALM 0 0 0 0 1026.4 - 0.0
30/08:00pm 13.4 13.9 11.5 88 1.0 CALM 0 0 0 0 1026.4 - 0.0
30/07:30pm 14.4 15.2 12.4 88 1.1 CALM 0 0 0 0 1026.1 - 0.0
30/07:00pm 15.1 16.0 12.8 86 1.3 CALM 0 0 0 0 1025.8 - 0.0
30/06:30pm 15.7 16.5 12.5 81 1.8 CALM 0 0 0 0 1025.4 - 0.0
30/06:00pm 16.4 17.2 12.6 78 2.1 CALM 0 0 0 0 1025.0 1025.0 0.0
30/05:30pm 16.9 17.8 12.8 77 2.3 CALM 0 0 0 0 1024.7 - 0.0
30/05:00pm 17.6 18.4 12.6 72 2.8 CALM 0 0 0 0 1024.5 - 0.0
30/04:30pm 18.5 19.4 12.9 70 3.2 CALM 0 0 0 0 1024.4 - 0.0
30/04:00pm 19.2 20.0 12.5 65 3.8 CALM 0 0 0 0 1024.4 - 0.0
30/03:30pm 20.0 20.6 11.8 59 4.6 CALM 0 0 0 0 1024.2 - 0.0
30/03:00pm 20.5 20.8 10.9 54 5.3 CALM 0 0 0 0 1024.5 1024.5 0.0
30/02:30pm 20.4 20.5 10.1 51 5.6 CALM 0 0 0 0 1024.7 - 0.0
30/02:00pm 20.6 20.6 9.7 49 5.9 CALM 0 0 0 0 1024.8 - 0.0
30/01:30pm 21.0 20.5 9.5 47 6.2 WNW 2 9 1 5 1025.0 - 0.0
30/01:00pm 20.8 20.1 10.2 50 5.8 NNW 4 11 2 6 1025.3 - 0.0
30/12:30pm 21.6 20.3 9.9 47 6.4 N 7 13 4 7 1025.5 - 0.0
30/12:00pm 20.7 18.2 9.6 49 6.0 NE 13 20 7 11 1025.9 1025.9 0.0
30/11:30am 19.8 17.0 10.0 53 5.3 NE 15 20 8 11 1026.3 - 0.0
30/11:00am 19.4 16.8 10.6 56 4.8 NNE 15 20 8 11 1027.2 - 0.0
30/10:30am 19.4 17.6 11.0 58 4.6 NE 11 17 6 9 1027.6 - 0.0
30/10:00am 17.7 16.6 11.9 69 3.2 NE 9 13 5 7 1028.0 - 0.0
30/09:30am 16.5 15.1 12.2 76 2.4 NE 11 20 6 11 1028.2 - 0.0
30/09:00am 15.7 14.7 12.3 80 1.9 NE 9 19 5 10 1028.4 1028.4 0.0
30/08:30am 13.3 14.1 12.4 94 0.5 CALM 0 0 0 0 1028.2 - 0.0
30/08:00am 11.9 12.3 11.3 96 0.3 CALM 0 2 0 1 1027.6 - 0.0
30/07:30am 10.6 10.7 10.2 97 0.2 CALM 0 0 0 0 1028.0 - 0.0
30/07:00am 9.9 9.8 9.5 97 0.2 CALM 0 0 0 0 1027.8 - 0.0
30/06:30am 9.9 9.8 9.5 97 0.2 CALM 0 0 0 0 1027.5 - 0.0
30/06:00am 9.5 9.4 9.3 99 0.1 CALM 0 0 0 0 1027.5 1027.6 0.0
30/05:30am 10.0 9.9 9.6 97 0.2 CALM 0 0 0 0 1027.6 - 0.0
30/05:00am 10.1 10.0 9.5 96 0.3 CALM 0 0 0 0 1027.4 - 0.0
30/04:30am 10.4 10.5 10.0 97 0.2 CALM 0 0 0 0 1027.4 - 0.0
30/04:00am 10.7 10.8 10.3 97 0.2 CALM 0 0 0 0 1027.4 - 0.0
30/03:30am 11.2 11.5 10.8 97 0.2 CALM 0 0 0 0 1027.4 - 0.0
30/03:00am 11.3 11.5 10.7 96 0.3 CALM 0 0 0 0 1027.9 1027.9 0.0
30/02:30am 11.8 12.1 11.0 95 0.4 CALM 0 0 0 0 1027.9 - 0.0
30/02:00am 12.9 13.5 11.8 93 0.6 CALM 0 6 0 3 1027.8 - 0.0
30/01:30am 13.5 12.8 12.0 91 0.8 E 7 13 4 7 1027.5 - 0.0
30/01:00am 13.8 12.7 12.0 89 1.0 ENE 9 17 5 9 1027.9 - 0.0
30/12:30am 13.5 13.7 12.0 91 0.8 E 2 9 1 5 1028.1 - 0.0
30/12:00am 13.6 13.0 12.3 92 0.7 E 7 11 4 6 1028.3 1028.3 0.0
 
Date/Time
EST
Temp
°C
App
Temp
°C
Dew
Point
Rel
Hum
%
Delta-T
°C
Wind Press
QNH
hPa
Press
MSL
hPa
Rain
since 9 am
mm
Dir
 
Spd
km/h
Gust
km/h
Spd
kts
Gust
kts
29/11:30pm 13.9 13.5 12.3 90 0.9 ENE 6 11 3 6 1028.8 - 0.0
29/11:00pm 14.3 13.8 12.5 89 1.0 E 7 15 4 8 1028.9 - 0.0
29/10:30pm 14.5 13.6 12.7 89 1.0 E 9 15 5 8 1028.9 - 0.0
29/10:00pm 14.8 13.9 12.6 87 1.2 E 9 15 5 8 1028.8 - 0.0
29/09:30pm 15.1 14.3 12.8 86 1.3 ESE 9 17 5 9 1028.7 - 0.0
29/09:00pm 15.8 14.5 12.6 81 1.8 ESE 11 22 6 12 1028.8 1028.8 0.0
29/08:30pm 16.5 15.9 12.4 77 2.3 ESE 7 15 4 8 1028.6 - 0.0
29/08:00pm 17.0 15.6 12.1 73 2.7 E 11 19 6 10 1028.4 - 0.0
29/07:30pm 17.3 16.5 11.7 69 3.1 ESE 7 13 4 7 1028.2 - 0.0
29/07:00pm 17.4 17.5 11.4 68 3.3 E 2 13 1 7 1027.8 - 0.0
29/06:30pm 17.5 17.2 11.3 67 3.4 E 4 9 2 5 1027.4 - 0.0
29/06:00pm 18.2 17.4 11.1 63 3.9 E 6 11 3 6 1027.3 1027.4 0.0
29/05:30pm 19.0 18.0 11.0 59 4.4 E 7 11 4 6 1026.8 - 0.0
29/05:00pm 19.9 18.4 10.6 55 5.1 E 9 13 5 7 1026.7 - 0.0
29/04:30pm 20.8 18.4 10.2 50 5.8 E 13 20 7 11 1026.5 - 0.0
29/04:00pm 21.9 19.6 10.5 48 6.3 ENE 13 24 7 13 1026.3 - 0.0
29/03:30pm 21.6 19.3 10.6 49 6.1 ENE 13 20 7 11 1026.2 - 0.0

Other Formats:

Comma delimited format used in spreadsheet applications
http://www.bom.gov.au/fwo/IDQ60801/IDQ60801.95529.axf

JavaScript Object Notation format (JSON) in row-major order
http://www.bom.gov.au/fwo/IDQ60801/IDQ60801.95529.json